createdAt,value
2022-09-28T00:01:25.433Z,99736.06
2022-09-28T00:03:58.188Z,99729.13
2022-09-28T00:06:28.845Z,99692.56
2022-09-28T00:08:57.358Z,99752.63
2022-09-28T00:11:28.114Z,99696.06
2022-09-28T00:14:00.112Z,99710.84
2022-09-28T00:16:31.876Z,99716.06
2022-09-28T00:19:02.066Z,99741.31
2022-09-28T00:21:33.644Z,99555.06
2022-09-28T00:24:15.238Z,99743.97
2022-09-28T00:26:47.995Z,99671.69
2022-09-28T00:29:23.867Z,99732.66
2022-09-28T00:31:59.724Z,99714.34
2022-09-28T00:34:31.956Z,99675.16
2022-09-28T00:37:01.338Z,99707.34
2022-09-28T00:39:31.605Z,99741.34
2022-09-28T00:42:00.734Z,99724.78
2022-09-28T00:44:47.394Z,99750.88
2022-09-28T00:47:28.067Z,99671.69
2022-09-28T00:50:02.837Z,99690.81
2022-09-28T00:52:37.059Z,99682.13
2022-09-28T00:55:09.320Z,99694.34
2022-09-28T00:57:39.063Z,99719.56
2022-09-28T01:00:09.184Z,99753.56
2022-09-28T01:02:38.006Z,99746.56
2022-09-28T01:05:10.979Z,99755.25
2022-09-28T01:07:40.074Z,99755.28
2022-09-28T01:10:10.020Z,99680.38
2022-09-28T01:12:38.471Z,99743.06
2022-09-28T01:15:08.367Z,99681.25
2022-09-28T01:17:56.790Z,99764.84
2022-09-28T01:21:01.407Z,99752.66
2022-09-28T01:24:15.200Z,99766.59
2022-09-28T01:26:56.959Z,99764.00
2022-09-28T01:29:52.925Z,99763.06
2022-09-28T01:32:50.575Z,99780.50
2022-09-28T01:35:24.794Z,99736.91
2022-09-28T01:37:58.398Z,99769.19
2022-09-28T01:40:29.967Z,99754.34
2022-09-28T01:43:04.498Z,99768.28
2022-09-28T01:45:42.195Z,99762.19
2022-09-28T01:48:13.249Z,99749.16
2022-09-28T01:50:46.527Z,99773.50
2022-09-28T01:53:22.522Z,99758.72
2022-09-28T01:55:56.623Z,99726.53
2022-09-28T01:58:33.503Z,99755.25
2022-09-28T02:01:09.970Z,99763.09
2022-09-28T02:03:47.951Z,99761.38
2022-09-28T02:06:21.812Z,99741.31
2022-09-28T02:08:53.998Z,99743.94
2022-09-28T02:11:27.397Z,99754.41
2022-09-28T02:14:04.890Z,99760.50
2022-09-28T02:16:40.373Z,99757.00
2022-09-28T02:19:12.764Z,99756.16
2022-09-28T02:21:47.654Z,99765.72
2022-09-28T02:24:23.998Z,99754.41
2022-09-28T02:26:56.684Z,99757.03
2022-09-28T02:29:26.986Z,99744.81
2022-09-28T02:31:55.354Z,99607.22
2022-09-28T02:34:23.689Z,99730.91
2022-09-28T02:36:51.940Z,99750.03
2022-09-28T02:39:21.649Z,99748.31
2022-09-28T02:42:08.604Z,99744.81
2022-09-28T02:45:08.967Z,99730.88
2022-09-28T02:48:00.778Z,99690.84
2022-09-28T02:50:40.699Z,99760.47
2022-09-28T02:53:26.059Z,99756.16
2022-09-28T02:56:19.771Z,99762.25
2022-09-28T02:58:58.194Z,99763.13
2022-09-28T03:01:35.421Z,99734.38
2022-09-28T03:04:14.680Z,99763.09
2022-09-28T03:06:48.400Z,99764.00
2022-09-28T03:09:27.627Z,99729.13
2022-09-28T03:12:01.989Z,99763.13
2022-09-28T03:14:30.566Z,99763.09
2022-09-28T03:17:01.109Z,99769.19
2022-09-28T03:19:32.423Z,99740.44
2022-09-28T03:22:02.042Z,99770.06
2022-09-28T03:24:30.583Z,99741.34
2022-09-28T03:26:58.978Z,99772.69
2022-09-28T03:29:27.417Z,99774.44
2022-09-28T03:32:03.304Z,99757.88
2022-09-28T03:34:31.572Z,99784.91
2022-09-28T03:37:00.088Z,99777.06
2022-09-28T03:39:28.698Z,99749.19
2022-09-28T03:41:57.187Z,99782.28
2022-09-28T03:44:25.531Z,99777.06
2022-09-28T03:46:53.912Z,99771.84
2022-09-28T03:49:23.645Z,99777.03
2022-09-28T03:51:52.152Z,99712.56
2022-09-28T03:54:20.488Z,99764.84
2022-09-28T03:56:48.759Z,99768.34
2022-09-28T03:59:18.479Z,99770.09
2022-09-28T04:01:49.689Z,99710.84
2022-09-28T04:04:18.379Z,99740.47
2022-09-28T04:06:48.548Z,99734.34
2022-09-28T04:09:17.311Z,99731.75
2022-09-28T04:12:03.430Z,99769.19
2022-09-28T04:14:34.077Z,99653.31
2022-09-28T04:17:02.380Z,99723.06
2022-09-28T04:19:33.060Z,99723.03
2022-09-28T04:22:41.255Z,99724.75
2022-09-28T04:25:10.668Z,99756.97
2022-09-28T04:27:56.526Z,99742.09
2022-09-28T04:30:24.903Z,99763.06
2022-09-28T04:32:54.141Z,99735.09
2022-09-28T04:35:22.554Z,99768.19
2022-09-28T04:37:52.522Z,99765.66
2022-09-28T04:40:21.239Z,99726.38
2022-09-28T04:42:56.066Z,99756.84
2022-09-28T04:45:26.215Z,99780.38
2022-09-28T04:47:56.597Z,99724.59
2022-09-28T04:50:32.447Z,99776.03
2022-09-28T04:53:26.603Z,99749.88
2022-09-28T04:56:00.582Z,99721.16
2022-09-28T04:58:30.146Z,99780.47
2022-09-28T05:01:01.645Z,99750.78
2022-09-28T05:03:56.532Z,99706.41
2022-09-28T05:06:39.529Z,99707.25
2022-09-28T05:09:10.557Z,99779.66
2022-09-28T05:11:38.911Z,99778.78
2022-09-28T05:14:13.172Z,99793.56
2022-09-28T05:16:42.136Z,99682.91
2022-09-28T05:19:31.362Z,99731.72
2022-09-28T05:22:04.785Z,99780.50
2022-09-28T05:24:40.625Z,99779.63
2022-09-28T05:27:08.962Z,99743.03
2022-09-28T05:29:37.310Z,99680.31
2022-09-28T05:32:24.113Z,99782.25
2022-09-28T05:35:21.853Z,99761.34
2022-09-28T05:37:50.687Z,99785.72
2022-09-28T05:40:20.504Z,99708.16
2022-09-28T05:42:50.164Z,99790.09
2022-09-28T05:45:18.562Z,99784.88
2022-09-28T05:47:48.335Z,99790.09
2022-09-28T05:50:20.151Z,99636.75
2022-09-28T05:52:50.537Z,99791.84
2022-09-28T05:55:20.374Z,99797.09
2022-09-28T05:57:48.963Z,99664.66
2022-09-28T06:00:18.881Z,99646.41
2022-09-28T06:03:05.392Z,99800.56
2022-09-28T06:05:37.118Z,99545.47
2022-09-28T06:08:08.239Z,99799.69
2022-09-28T06:10:38.508Z,99732.66
2022-09-28T06:13:08.218Z,99743.09
2022-09-28T06:15:39.058Z,99748.31
2022-09-28T06:18:11.328Z,99793.56
2022-09-28T06:20:52.844Z,99760.47
2022-09-28T06:23:31.427Z,99794.41
2022-09-28T06:26:01.965Z,99795.28
2022-09-28T06:28:31.839Z,99768.31
2022-09-28T06:31:01.988Z,99620.34
2022-09-28T06:33:31.917Z,99797.84
2022-09-28T06:36:00.925Z,99797.84
2022-09-28T06:38:29.213Z,99751.69
2022-09-28T06:40:58.908Z,99736.88
2022-09-28T06:43:34.121Z,99807.44
2022-09-28T06:46:15.131Z,99783.00
2022-09-28T06:48:52.894Z,99810.97
2022-09-28T06:51:34.830Z,99794.38
2022-09-28T06:54:13.237Z,99795.28
2022-09-28T06:56:44.185Z,99804.00
2022-09-28T06:59:14.120Z,99804.91
2022-09-28T07:01:42.681Z,99821.47
2022-09-28T07:04:31.922Z,99820.59
2022-09-28T07:07:18.653Z,99765.72
2022-09-28T07:10:24.077Z,99777.91
2022-09-28T07:13:43.110Z,99819.75
2022-09-28T07:16:09.812Z,99725.66
2022-09-28T07:18:38.139Z,99838.91
2022-09-28T07:21:08.615Z,99846.75
2022-09-28T07:23:48.932Z,99845.00
2022-09-28T07:26:25.672Z,99825.81
2022-09-28T07:28:56.974Z,99847.63
2022-09-28T07:31:57.562Z,99857.19
2022-09-28T07:34:28.696Z,99849.38
2022-09-28T07:37:13.393Z,99770.06
2022-09-28T07:39:59.578Z,99816.25
2022-09-28T07:42:47.349Z,99840.66
2022-09-28T07:45:16.050Z,99796.22
2022-09-28T07:47:45.860Z,99852.81
2022-09-28T07:50:29.935Z,99834.56
2022-09-28T07:53:22.544Z,99824.94
2022-09-28T07:56:18.281Z,99844.06
2022-09-28T07:59:05.058Z,99866.63
2022-09-28T08:01:52.093Z,99844.72
2022-09-28T08:04:21.882Z,99688.84
2022-09-28T08:06:50.369Z,99858.34
2022-09-28T08:09:20.514Z,99866.97
2022-09-28T08:12:09.141Z,99870.44
2022-09-28T08:14:44.129Z,99746.59
2022-09-28T08:17:48.582Z,99782.25
2022-09-28T08:20:38.444Z,99729.97
2022-09-28T08:23:08.422Z,99859.44
2022-09-28T08:25:38.283Z,99777.59
2022-09-28T08:28:08.239Z,99826.22
2022-09-28T08:30:44.296Z,99768.53
2022-09-28T08:33:47.938Z,99861.47
2022-09-28T08:36:36.082Z,99862.34
2022-09-28T08:39:30.378Z,99861.31
2022-09-28T08:42:30.144Z,99829.91
2022-09-28T08:45:26.977Z,99836.94
2022-09-28T08:48:56.289Z,99828.53
2022-09-28T08:51:55.392Z,99831.59
2022-09-28T08:54:41.795Z,99861.38
2022-09-28T08:57:22.991Z,99870.47
2022-09-28T08:59:55.773Z,99843.44
2022-09-28T09:02:33.650Z,99856.31
2022-09-28T09:05:19.168Z,99884.91
2022-09-28T09:08:26.788Z,99862.31
2022-09-28T09:11:05.507Z,99888.38
2022-09-28T09:14:01.304Z,99823.03
2022-09-28T09:16:44.161Z,99772.50
2022-09-28T09:19:54.490Z,99851.47
2022-09-28T09:22:41.752Z,99861.91
2022-09-28T09:25:24.544Z,99841.84
2022-09-28T09:28:32.136Z,99846.78
2022-09-28T09:31:22.567Z,99889.28
2022-09-28T09:34:17.935Z,99830.94
2022-09-28T09:37:05.891Z,99883.59
2022-09-28T09:40:23.241Z,99885.53
2022-09-28T09:43:35.362Z,99888.09
2022-09-28T09:46:28.753Z,99892.03
2022-09-28T09:49:26.033Z,99885.78
2022-09-28T09:52:05.114Z,99854.09
2022-09-28T09:54:40.605Z,99878.91
2022-09-28T09:57:18.701Z,99866.00
2022-09-28T09:59:54.076Z,99835.63
2022-09-28T10:02:33.707Z,99806.25
2022-09-28T10:05:25.522Z,99882.56
2022-09-28T10:08:01.600Z,99842.59
2022-09-28T10:10:35.077Z,99896.84
2022-09-28T10:13:11.315Z,99890.19
2022-09-28T10:15:43.400Z,99842.34
2022-09-28T10:18:35.890Z,99866.31
2022-09-28T10:21:25.359Z,99842.00
2022-09-28T10:24:02.786Z,99862.16
2022-09-28T10:26:36.795Z,99875.00
2022-09-28T10:29:15.819Z,99814.03
2022-09-28T10:31:48.989Z,99828.41
2022-09-28T10:34:29.529Z,99870.69
2022-09-28T10:37:05.468Z,99864.84
2022-09-28T10:39:56.593Z,99836.50
2022-09-28T10:42:30.975Z,99835.63
2022-09-28T10:45:08.301Z,99782.25
2022-09-28T10:47:38.467Z,99867.44
2022-09-28T10:50:22.151Z,99846.78
2022-09-28T10:52:53.209Z,99865.56
2022-09-28T10:55:41.439Z,99861.19
2022-09-28T10:58:28.032Z,99826.28
2022-09-28T11:01:08.232Z,99859.66
2022-09-28T11:03:52.971Z,99792.41
2022-09-28T11:06:28.097Z,99842.88
2022-09-28T11:09:00.023Z,99863.66
2022-09-28T11:11:31.482Z,99822.72
2022-09-28T11:14:06.571Z,99853.19
2022-09-28T11:16:39.013Z,99819.03
2022-09-28T11:19:29.444Z,99838.00
2022-09-28T11:21:57.742Z,99849.78
2022-09-28T11:24:38.105Z,99796.44
2022-09-28T11:27:06.946Z,99843.25
2022-09-28T11:29:39.948Z,99819.03
2022-09-28T11:32:43.914Z,99841.38
2022-09-28T11:35:46.980Z,99826.97
2022-09-28T11:38:41.253Z,99811.66
2022-09-28T11:41:50.896Z,99805.88
2022-09-28T11:44:40.115Z,99799.38
2022-09-28T11:47:51.218Z,99829.53
2022-09-28T11:50:31.936Z,99811.31
2022-09-28T11:53:14.733Z,99807.09
2022-09-28T11:55:52.183Z,99809.75
2022-09-28T11:58:28.871Z,99809.13
2022-09-28T12:01:05.940Z,99793.06
2022-09-28T12:04:03.155Z,99828.03
2022-09-28T12:06:42.156Z,99827.94
2022-09-28T12:09:18.195Z,99860.03
2022-09-28T12:12:14.154Z,99834.81
2022-09-28T12:14:48.516Z,99865.06
2022-09-28T12:17:26.196Z,99869.38
2022-09-28T12:20:04.983Z,99824.47
2022-09-28T12:22:39.192Z,99808.47
2022-09-28T12:25:15.672Z,99814.06
2022-09-28T12:27:54.957Z,99859.81
2022-09-28T12:30:25.740Z,99855.16
2022-09-28T12:33:02.782Z,99833.88
2022-09-28T12:35:41.841Z,99739.13
2022-09-28T12:39:08.441Z,99851.84
2022-09-28T12:41:52.496Z,99843.34
2022-09-28T12:44:39.124Z,99761.50
2022-09-28T12:47:40.312Z,99765.28
2022-09-28T12:50:39.527Z,99838.59
2022-09-28T12:53:38.828Z,99839.66
2022-09-28T12:56:21.557Z,99769.78
2022-09-28T12:59:06.015Z,99707.00
2022-09-28T13:02:22.736Z,99850.25
2022-09-28T13:05:25.678Z,99839.53
2022-09-28T13:08:05.308Z,99838.22
2022-09-28T13:10:43.079Z,99848.13
2022-09-28T13:13:34.784Z,99853.38
2022-09-28T13:16:12.790Z,99829.56
2022-09-28T13:18:52.215Z,99777.78
2022-09-28T13:21:33.037Z,99860.59
2022-09-28T13:24:27.751Z,99804.28
2022-09-28T13:26:58.232Z,99799.00
2022-09-28T13:29:27.952Z,99867.66
2022-09-28T13:32:02.006Z,99872.25
2022-09-28T13:34:35.310Z,99839.03
2022-09-28T13:37:22.005Z,99876.81
2022-09-28T13:39:53.188Z,99877.19
2022-09-28T13:43:05.348Z,99701.38
2022-09-28T13:45:56.752Z,99802.47
2022-09-28T13:48:42.532Z,99882.47
2022-09-28T13:51:27.293Z,99848.31
2022-09-28T13:54:17.223Z,99869.22
2022-09-28T13:56:55.288Z,99838.88
2022-09-28T13:59:28.457Z,99876.94
2022-09-28T14:02:07.071Z,99828.06
2022-09-28T14:04:58.957Z,99848.44
2022-09-28T14:07:47.888Z,99798.13
2022-09-28T14:10:22.259Z,99839.00
2022-09-28T14:12:51.577Z,99856.16
2022-09-28T14:15:49.749Z,99847.09
2022-09-28T14:18:30.458Z,99829.53
2022-09-28T14:21:29.387Z,99880.81
2022-09-28T14:24:23.186Z,99848.03
2022-09-28T14:27:14.047Z,99861.84
2022-09-28T14:29:42.649Z,99851.50
2022-09-28T14:32:36.142Z,99832.19
2022-09-28T14:35:07.538Z,99882.94
2022-09-28T14:37:56.805Z,99883.47
2022-09-28T14:40:49.717Z,99854.84
2022-09-28T14:43:28.257Z,99775.09
2022-09-28T14:46:33.242Z,99882.91
2022-09-28T14:49:07.907Z,99860.31
2022-09-28T14:52:04.735Z,99867.97
2022-09-28T14:54:54.387Z,99877.38
2022-09-28T14:57:30.238Z,99912.59
2022-09-28T15:00:00.688Z,99836.94
2022-09-28T15:02:38.441Z,99886.38
2022-09-28T15:05:25.529Z,99889.56
2022-09-28T15:07:56.268Z,99912.28
2022-09-28T15:10:32.271Z,99929.25
2022-09-28T15:13:04.034Z,99902.56
2022-09-28T15:15:38.251Z,99902.84
2022-09-28T15:18:58.845Z,99929.03
2022-09-28T15:21:36.709Z,99896.66
2022-09-28T15:24:27.195Z,99929.69
2022-09-28T15:26:56.786Z,99891.03
2022-09-28T15:29:31.014Z,99921.13
2022-09-28T15:31:59.702Z,99855.53
2022-09-28T15:34:48.529Z,99898.97
2022-09-28T15:37:22.567Z,99885.72
2022-09-28T15:39:53.302Z,99913.28
2022-09-28T15:42:22.863Z,99790.31
2022-09-28T15:45:24.869Z,99922.47
2022-09-28T15:48:18.213Z,99806.84
2022-09-28T15:51:05.120Z,99929.44
2022-09-28T15:53:35.248Z,99921.66
2022-09-28T15:56:10.227Z,99892.31
2022-09-28T15:58:39.396Z,99846.56
2022-09-28T16:01:37.037Z,99809.47
2022-09-28T16:04:44.295Z,99924.88
2022-09-28T16:07:25.572Z,99908.16
2022-09-28T16:10:31.266Z,99891.75
2022-09-28T16:13:15.814Z,99938.72
2022-09-28T16:15:44.745Z,99941.66
2022-09-28T16:18:23.518Z,99915.34
2022-09-28T16:20:54.015Z,99939.56
2022-09-28T16:23:27.958Z,99910.69
2022-09-28T16:26:02.708Z,99936.69
2022-09-28T16:28:52.064Z,99937.06
2022-09-28T16:31:34.466Z,99887.66
2022-09-28T16:34:20.087Z,99851.06
2022-09-28T16:36:50.649Z,99865.16
2022-09-28T16:39:20.619Z,99856.28
2022-09-28T16:41:56.904Z,99907.84
2022-09-28T16:44:28.641Z,99877.28
2022-09-28T16:47:00.675Z,99868.75
2022-09-28T16:49:32.171Z,99858.34
2022-09-28T16:52:01.917Z,99939.97
2022-09-28T16:54:48.266Z,99949.66
2022-09-28T16:57:18.089Z,99902.75
2022-09-28T16:59:46.359Z,99953.44
2022-09-28T17:02:45.090Z,99921.38
2022-09-28T17:05:11.148Z,99871.69
2022-09-28T17:07:39.914Z,99964.06
2022-09-28T17:10:19.367Z,99921.50
2022-09-28T17:12:49.069Z,99952.91
2022-09-28T17:15:19.672Z,99971.34
2022-09-28T17:17:49.428Z,99916.44
2022-09-28T17:20:22.848Z,99921.69
2022-09-28T17:22:52.128Z,99925.13
2022-09-28T17:25:21.415Z,99946.88
2022-09-28T17:27:51.854Z,99969.53
2022-09-28T17:30:23.606Z,99958.31
2022-09-28T17:32:55.235Z,99980.91
2022-09-28T17:35:24.981Z,99956.56
2022-09-28T17:37:54.006Z,99988.81
2022-09-28T17:40:24.676Z,99961.84
2022-09-28T17:42:57.836Z,99979.22
2022-09-28T17:45:31.322Z,99927.00
2022-09-28T17:48:00.681Z,99923.53
2022-09-28T17:50:32.404Z,99934.91
2022-09-28T17:53:06.038Z,99887.88
2022-09-28T17:55:36.685Z,99973.25
2022-09-28T17:58:17.878Z,99975.09
2022-09-28T18:00:48.348Z,99993.41
2022-09-28T18:03:18.829Z,99914.22
2022-09-28T18:05:49.837Z,100002.31
2022-09-28T18:08:21.593Z,99982.38
2022-09-28T18:10:52.278Z,99981.56
2022-09-28T18:13:22.113Z,99930.22
2022-09-28T18:15:52.818Z,99957.25
2022-09-28T18:18:22.001Z,99956.38
2022-09-28T18:20:53.162Z,99973.84
2022-09-28T18:23:21.585Z,100011.38
2022-09-28T18:25:49.985Z,99920.78
2022-09-28T18:28:18.347Z,100009.69
2022-09-28T18:30:48.129Z,100027.22
2022-09-28T18:33:16.613Z,99989.69
2022-09-28T18:35:53.568Z,100014.13
2022-09-28T18:38:22.271Z,99940.91
2022-09-28T18:40:50.876Z,100024.66
2022-09-28T18:43:19.320Z,99829.34
2022-09-28T18:45:49.641Z,99991.53
2022-09-28T18:48:18.039Z,100002.88
2022-09-28T18:50:46.423Z,99926.94
2022-09-28T18:53:15.108Z,99983.66
2022-09-28T18:55:44.712Z,100016.84
2022-09-28T18:58:13.686Z,100032.53
2022-09-28T19:00:43.453Z,100019.47
2022-09-28T19:03:14.418Z,100040.38
2022-09-28T19:05:43.953Z,99975.81
2022-09-28T19:08:12.391Z,100039.50
2022-09-28T19:10:40.812Z,99979.25
2022-09-28T19:13:09.521Z,100043.00
2022-09-28T19:15:38.694Z,99935.66
2022-09-28T19:18:07.248Z,100046.50
2022-09-28T19:20:37.023Z,100043.84
2022-09-28T19:23:05.826Z,100042.94
2022-09-28T19:25:35.403Z,100050.81
2022-09-28T19:28:03.939Z,100012.41
2022-09-28T19:30:32.277Z,100017.63
2022-09-28T19:33:00.845Z,100060.38
2022-09-28T19:35:29.461Z,99907.63
2022-09-28T19:37:59.357Z,100062.97
2022-09-28T19:40:27.700Z,100054.25
2022-09-28T19:42:56.088Z,100036.78
2022-09-28T19:45:24.564Z,100061.22
2022-09-28T19:47:57.312Z,100003.56
2022-09-28T19:50:27.641Z,100059.44
2022-09-28T19:52:57.155Z,100061.16
2022-09-28T19:55:35.235Z,100056.78
2022-09-28T19:58:05.004Z,100002.63
2022-09-28T20:00:33.320Z,100065.50
2022-09-28T20:03:01.673Z,100068.97
2022-09-28T20:05:30.071Z,99954.56
2022-09-28T20:07:58.559Z,100073.34
2022-09-28T20:10:30.170Z,100050.66
2022-09-28T20:12:58.982Z,100068.97
2022-09-28T20:15:28.231Z,100070.72
2022-09-28T20:17:58.737Z,100078.53
2022-09-28T20:20:28.010Z,100037.44
2022-09-28T20:22:56.391Z,100039.22
2022-09-28T20:25:25.591Z,100078.53
2022-09-28T20:27:55.781Z,100055.78
2022-09-28T20:30:24.280Z,99991.16
2022-09-28T20:32:52.757Z,100071.53
2022-09-28T20:35:32.315Z,100003.38
2022-09-28T20:38:08.114Z,100080.22
2022-09-28T20:40:36.628Z,100052.19
2022-09-28T20:43:08.283Z,100053.94
2022-09-28T20:45:38.137Z,100078.41
2022-09-28T20:48:06.904Z,99988.34
2022-09-28T20:50:35.724Z,99947.28
2022-09-28T20:53:04.028Z,100077.44
2022-09-28T20:55:32.356Z,100045.06
2022-09-28T20:58:04.539Z,100069.56
2022-09-28T21:00:34.381Z,100045.91
2022-09-28T21:03:02.825Z,100061.53
2022-09-28T21:05:31.207Z,100082.50
2022-09-28T21:08:00.024Z,99918.22
2022-09-28T21:10:30.281Z,100079.91
2022-09-28T21:12:58.741Z,100005.56
2022-09-28T21:15:29.551Z,100078.97
2022-09-28T21:17:59.491Z,100083.31
2022-09-28T21:20:27.913Z,100038.72
2022-09-28T21:22:56.233Z,100013.44
2022-09-28T21:25:24.691Z,100075.44
2022-09-28T21:27:53.975Z,100080.69
2022-09-28T21:30:22.236Z,100057.91
2022-09-28T21:32:52.161Z,100090.22
2022-09-28T21:35:21.827Z,100098.09
2022-09-28T21:37:50.943Z,100088.50
2022-09-28T21:40:19.985Z,100092.75
2022-09-28T21:42:48.331Z,100041.09
2022-09-28T21:45:17.367Z,100031.53
2022-09-28T21:47:52.653Z,100085.75
2022-09-28T21:50:25.108Z,100058.63
2022-09-28T21:52:55.093Z,100039.41
2022-09-28T21:55:24.922Z,100063.84
2022-09-28T21:57:53.276Z,100082.06
2022-09-28T22:00:24.330Z,100011.22
2022-09-28T22:02:53.101Z,100030.50
2022-09-28T22:05:22.892Z,100074.91
2022-09-28T22:07:51.203Z,100085.47
2022-09-28T22:10:19.667Z,100110.00
2022-09-28T22:12:47.940Z,100074.00
2022-09-28T22:15:16.463Z,100110.81
2022-09-28T22:17:45.021Z,100112.53
2022-09-28T22:20:13.344Z,100119.47
2022-09-28T22:22:43.054Z,100121.25
2022-09-28T22:25:11.506Z,100116.03
2022-09-28T22:27:40.126Z,100078.34
2022-09-28T22:30:09.958Z,100100.16
2022-09-28T22:32:38.245Z,100124.63
2022-09-28T22:35:08.361Z,100119.41
2022-09-28T22:37:36.618Z,100030.19
2022-09-28T22:40:07.777Z,100092.19
2022-09-28T22:42:36.191Z,100121.94
2022-09-28T22:45:05.191Z,99942.66
2022-09-28T22:47:33.654Z,100119.25
2022-09-28T22:50:01.985Z,100124.44
2022-09-28T22:52:30.401Z,100106.94
2022-09-28T22:54:58.916Z,100126.16
2022-09-28T22:57:28.853Z,100120.88
2022-09-28T22:59:57.206Z,100123.47
2022-09-28T23:02:25.718Z,100093.63
2022-09-28T23:04:54.075Z,100084.13
2022-09-28T23:07:22.442Z,100112.06
2022-09-28T23:09:53.297Z,100123.41
2022-09-28T23:12:21.750Z,100091.78
2022-09-28T23:14:52.274Z,100006.84
2022-09-28T23:17:20.902Z,100077.81
2022-09-28T23:19:49.425Z,100128.41
2022-09-28T23:22:17.833Z,100124.91
2022-09-28T23:24:46.363Z,100121.47
2022-09-28T23:27:14.633Z,100117.09
2022-09-28T23:29:46.850Z,100119.72
2022-09-28T23:32:17.553Z,100086.47
2022-09-28T23:34:45.990Z,99934.25
2022-09-28T23:37:14.380Z,100123.13
2022-09-28T23:39:43.675Z,100125.72
2022-09-28T23:42:12.418Z,100076.72
2022-09-28T23:44:40.842Z,100100.28
2022-09-28T23:47:09.218Z,100093.38
2022-09-28T23:49:39.334Z,100123.00
2022-09-28T23:52:07.823Z,100120.34
2022-09-28T23:54:36.289Z,100121.22
2022-09-28T23:57:04.973Z,100126.41
2022-09-28T23:59:33.501Z,100116.72
